Time;durP1;ratioP1;P1;durP2;ratioP2;P2;SDS_P1;SDS_P2;PMS_P1;PMS_P2;Temp;Humidity;BMP_temperature;BMP_pressure;BME280_temperature;BME280_humidity;BME280_pressure;Samples;Min_cycle;Max_cycle;Signal;HPM_P1;HPM_P2
2022/08/01 00:01:57;;;;;;;5.17;4.77;;;;;;;20.11;95.30;100231.19;5020225;28;20203;-80
2022/08/01 00:04:24;;;;;;;4.40;4.10;;;;;;;20.15;94.89;100235.38;5020431;28;20211;-79
2022/08/01 00:06:51;;;;;;;4.47;4.17;;;;;;;20.11;94.96;100239.16;5019964;28;20203;-79
2022/08/01 00:09:18;;;;;;;4.37;4.07;;;;;;;20.18;94.69;100235.19;5019883;28;20230;-80
2022/08/01 00:11:44;;;;;;;5.00;4.33;;;;;;;20.21;95.00;100232.31;5020030;28;20288;-79
2022/08/01 00:14:11;;;;;;;4.17;3.77;;;;;;;20.21;95.01;100221.72;5019932;28;20218;-79
2022/08/01 00:16:38;;;;;;;4.23;4.00;;;;;;;20.22;94.66;100228.75;5018964;28;20234;-80
2022/08/01 00:19:04;;;;;;;4.87;4.47;;;;;;;20.26;94.52;100240.00;5018681;28;20221;-79
2022/08/01 00:21:31;;;;;;;4.70;4.40;;;;;;;20.10;95.12;100223.34;5019000;28;20259;-80
2022/08/01 00:23:59;;;;;;;4.77;4.47;;;;;;;20.12;95.47;100217.03;5018146;28;20689;-79
2022/08/01 00:26:25;;;;;;;5.13;4.60;;;;;;;20.18;94.85;100221.09;5017939;28;20242;-79
2022/08/01 00:28:51;;;;;;;5.60;5.20;;;;;;;20.20;94.78;100227.16;5017604;28;20230;-80
2022/08/01 00:31:21;;;;;;;7.73;4.57;;;;;;;20.20;95.16;100220.03;5017514;28;20673;-80
2022/08/01 00:33:47;;;;;;;5.83;5.27;;;;;;;20.17;95.68;100203.47;5017854;28;20301;-80
2022/08/01 00:36:14;;;;;;;5.27;4.77;;;;;;;20.23;95.05;100213.69;5018053;28;20217;-80
2022/08/01 00:38:40;;;;;;;5.67;5.20;;;;;;;20.16;95.31;100212.38;5017351;28;20250;-80
2022/08/01 00:41:08;;;;;;;5.43;5.00;;;;;;;20.07;96.55;100187.28;5017610;28;20206;-80
2022/08/01 00:43:34;;;;;;;5.93;5.53;;;;;;;20.13;95.58;100194.84;5018374;28;20268;-79
2022/08/01 00:46:00;;;;;;;6.17;4.97;;;;;;;20.06;96.88;100174.13;5017779;28;20291;-79
2022/08/01 00:48:27;;;;;;;6.03;5.63;;;;;;;20.15;96.54;100189.47;5017108;28;20786;-80
2022/08/01 00:50:53;;;;;;;6.10;5.80;;;;;;;20.11;96.37;100198.56;5018166;28;20233;-80
2022/08/01 00:53:20;;;;;;;9.37;5.70;;;;;;;20.16;95.81;100193.84;5016448;28;20210;-79
2022/08/01 00:55:48;;;;;;;5.67;4.47;;;;;;;20.21;95.81;100197.03;5016696;28;20748;-80
2022/08/01 00:58:16;;;;;;;5.43;5.03;;;;;;;20.23;95.50;100201.28;5018052;28;20310;-80
2022/08/01 01:00:43;;;;;;;9.10;6.07;;;;;;;20.28;95.33;100205.44;5017555;28;20212;-79
2022/08/01 01:03:09;;;;;;;5.23;4.83;;;;;;;20.18;95.78;100199.88;5016894;28;20622;-80
2022/08/01 01:05:44;;;;;;;5.77;5.37;;;;;;;20.20;95.54;100200.63;5015976;28;20220;-79
2022/08/01 01:08:17;;;;;;;5.90;5.50;;;;;;;20.17;96.21;100195.53;5014836;28;20632;-77
2022/08/01 01:10:48;;;;;;;4.57;4.27;;;;;;;19.80;99.09;100135.09;5015504;28;20231;-78
2022/08/01 01:13:23;;;;;;;5.50;5.00;;;;;;;19.80;99.81;100132.44;5015494;28;20585;-78
2022/08/01 01:15:55;;;;;;;4.43;4.20;;;;;;;19.84;99.42;100131.31;5015877;28;20240;-79
2022/08/01 01:18:25;;;;;;;4.97;4.53;;;;;;;19.63;100.00;100114.06;5016419;28;20229;-78
2022/08/01 01:21:00;;;;;;;4.77;4.47;;;;;;;19.34;100.00;100092.88;5030500;28;20759;-78
2022/08/01 01:23:41;;;;;;;4.63;4.20;;;;;;;18.96;100.00;100074.03;5031536;28;20219;-78
2022/08/01 01:26:32;;;;;;;6.37;5.13;;;;;;;18.87;100.00;100093.94;5031250;28;20273;-78
2022/08/01 01:29:07;;;;;;;4.90;4.50;;;;;;;18.87;100.00;100108.94;5032107;28;20256;-78
2022/08/01 01:31:41;;;;;;;4.43;4.13;;;;;;;18.71;100.00;100133.63;5016771;28;20576;-79
2022/08/01 01:34:12;;;;;;;3.87;3.60;;;;;;;18.61;100.00;100164.16;5015425;28;20753;-78
2022/08/01 01:36:40;;;;;;;4.03;3.63;;;;;;;18.70;100.00;100176.00;5015453;28;20206;-79
2022/08/01 01:39:07;;;;;;;4.17;3.23;;;;;;;18.64;100.00;100193.06;5014776;28;20271;-78
2022/08/01 01:41:37;;;;;;;2.87;2.77;;;;;;;18.53;100.00;100198.97;5017183;28;20225;-79
2022/08/01 01:44:06;;;;;;;3.00;2.80;;;;;;;18.55;100.00;100201.50;5019637;28;20214;-79
2022/08/01 01:46:33;;;;;;;3.20;2.90;;;;;;;18.46;100.00;100211.66;5019725;28;20217;-79
2022/08/01 01:49:01;;;;;;;2.90;2.70;;;;;;;18.42;100.00;100214.56;5019820;28;20654;-79
2022/08/01 01:51:29;;;;;;;2.90;2.70;;;;;;;18.45;100.00;100215.25;5019759;28;20710;-79
2022/08/01 01:53:56;;;;;;;3.13;2.60;;;;;;;18.55;100.00;100212.09;5019475;28;20241;-79
2022/08/01 01:56:24;;;;;;;2.50;2.33;;;;;;;18.47;100.00;100209.88;5019902;28;20561;-79
2022/08/01 01:58:53;;;;;;;2.83;2.63;;;;;;;18.57;100.00;100212.84;5019621;28;20230;-79
2022/08/01 02:01:22;;;;;;;2.13;2.03;;;;;;;18.65;100.00;100206.22;5019715;28;20210;-79
2022/08/01 02:03:50;;;;;;;2.53;2.33;;;;;;;18.62;100.00;100210.81;5019749;28;20210;-79
2022/08/01 02:06:17;;;;;;;2.40;2.20;;;;;;;18.58;100.00;100202.19;5019331;28;20248;-79
2022/08/01 02:08:46;;;;;;;2.10;2.00;;;;;;;18.66;100.00;100201.78;5019837;28;20237;-79
2022/08/01 02:11:22;;;;;;;1.97;1.87;;;;;;;18.60;100.00;100205.59;5020222;28;20593;-79
2022/08/01 02:13:54;;;;;;;2.53;2.03;;;;;;;18.64;100.00;100199.22;5019980;28;20275;-79
2022/08/01 02:16:27;;;;;;;2.10;2.00;;;;;;;18.56;100.00;100203.22;5020015;28;20213;-79
2022/08/01 02:18:54;;;;;;;3.03;2.60;;;;;;;18.47;100.00;100204.59;5013478;28;20265;-79
2022/08/01 02:21:25;;;;;;;3.27;2.97;;;;;;;18.59;100.00;100206.56;5020241;28;20293;-79
2022/08/01 02:23:54;;;;;;;3.13;2.93;;;;;;;18.73;100.00;100204.91;5019966;28;20250;-79
2022/08/01 02:26:24;;;;;;;3.50;3.30;;;;;;;18.74;100.00;100212.75;5019383;28;20210;-78
2022/08/01 02:28:56;;;;;;;3.30;2.97;;;;;;;18.71;100.00;100205.03;5020915;28;20250;-79
2022/08/01 02:31:24;;;;;;;4.70;4.20;;;;;;;18.76;100.00;100215.31;5020570;28;20643;-79
2022/08/01 02:33:57;;;;;;;5.27;4.87;;;;;;;18.58;100.00;100204.00;5020899;28;20587;-78
2022/08/01 02:36:27;;;;;;;4.57;4.27;;;;;;;18.68;100.00;100202.53;5020837;28;20214;-79
2022/08/01 02:38:57;;;;;;;4.60;4.30;;;;;;;18.82;100.00;100212.38;5020640;28;20234;-79
2022/08/01 02:41:27;;;;;;;5.43;4.97;;;;;;;18.89;100.00;100218.16;5021487;28;20220;-79
2022/08/01 02:43:57;;;;;;;5.63;5.17;;;;;;;18.91;100.00;100217.13;5019553;28;20194;-78
2022/08/01 02:46:28;;;;;;;6.10;5.67;;;;;;;18.77;100.00;100225.81;5017029;28;20742;-78
2022/08/01 02:48:59;;;;;;;6.07;5.57;;;;;;;18.78;100.00;100231.97;5017745;28;20226;-79
2022/08/01 02:51:27;;;;;;;3.30;3.00;;;;;;;18.39;100.00;100228.81;5017132;28;20229;-79
2022/08/01 02:53:56;;;;;;;3.80;3.30;;;;;;;18.37;100.00;100229.81;5017187;28;20214;-79
2022/08/01 02:56:24;;;;;;;2.47;2.00;;;;;;;18.36;100.00;100228.97;5017533;28;20210;-79
2022/08/01 02:58:53;;;;;;;1.60;1.50;;;;;;;18.11;100.00;100236.53;5018381;28;20679;-79
2022/08/01 03:01:21;;;;;;;2.40;2.20;;;;;;;18.04;100.00;100241.28;5018765;28;20214;-79
2022/08/01 03:03:49;;;;;;;1.60;1.50;;;;;;;18.05;100.00;100243.81;5019592;28;20212;-79
2022/08/01 03:06:17;;;;;;;1.73;1.63;;;;;;;18.07;100.00;100246.38;5018587;28;20205;-79
2022/08/01 03:08:44;;;;;;;1.40;1.30;;;;;;;17.99;100.00;100249.44;5018440;28;20228;-79
2022/08/01 03:11:13;;;;;;;1.97;1.50;;;;;;;18.09;100.00;100246.31;5019210;28;20232;-78
2022/08/01 03:13:42;;;;;;;2.20;2.03;;;;;;;18.14;100.00;100250.41;5019137;28;20213;-79
2022/08/01 03:16:10;;;;;;;2.53;2.10;;;;;;;18.15;100.00;100253.91;5017944;28;20220;-78
2022/08/01 03:18:37;;;;;;;3.27;2.27;;;;;;;17.96;100.00;100256.69;5017684;28;20226;-79
2022/08/01 03:21:07;;;;;;;4.93;3.20;;;;;;;17.86;100.00;100259.81;5018985;28;20218;-78
2022/08/01 03:23:38;;;;;;;4.63;4.20;;;;;;;17.95;100.00;100274.31;5018000;28;20714;-79
2022/08/01 03:26:05;;;;;;;6.70;6.20;;;;;;;18.03;100.00;100276.53;5018498;28;20212;-79
2022/08/01 03:28:32;;;;;;;7.43;6.80;;;;;;;18.19;100.00;100274.78;5018761;28;20230;-79
2022/08/01 03:31:00;;;;;;;7.80;7.10;;;;;;;18.12;100.00;100281.34;5019465;28;20217;-79
2022/08/01 03:33:27;;;;;;;8.17;7.57;;;;;;;18.15;100.00;100272.41;5019125;28;20273;-79
2022/08/01 03:35:55;;;;;;;8.27;7.47;;;;;;;18.08;100.00;100284.22;5018294;28;20268;-79
2022/08/01 03:38:24;;;;;;;7.93;7.27;;;;;;;18.04;100.00;100286.19;5018132;28;20226;-79
2022/08/01 03:40:54;;;;;;;8.20;7.50;;;;;;;18.01;100.00;100291.63;5017372;28;20218;-79
2022/08/01 03:43:31;;;;;;;7.87;7.23;;;;;;;18.10;100.00;100300.88;5018444;28;20672;-79
2022/08/01 03:46:03;;;;;;;7.37;6.87;;;;;;;18.00;100.00;100301.34;5017183;28;20214;-78
2022/08/01 03:48:33;;;;;;;6.40;5.73;;;;;;;18.05;100.00;100301.09;5017471;28;20236;-78
2022/08/01 03:51:08;;;;;;;6.93;6.30;;;;;;;17.98;100.00;100299.72;5016196;28;20728;-78
2022/08/01 03:53:37;;;;;;;5.30;4.90;;;;;;;18.11;100.00;100299.91;5016094;28;20718;-78
2022/08/01 03:56:08;;;;;;;4.90;4.57;;;;;;;17.93;100.00;100294.66;5016072;28;20214;-79
2022/08/01 03:58:37;;;;;;;5.07;4.67;;;;;;;17.94;100.00;100301.66;5016912;28;20687;-78
2022/08/01 04:01:04;;;;;;;5.20;4.80;;;;;;;17.96;100.00;100298.94;5016279;28;20752;-78
2022/08/01 04:03:31;;;;;;;5.10;4.70;;;;;;;17.89;100.00;100301.03;5015662;28;20210;-77
2022/08/01 04:05:57;;;;;;;5.93;4.87;;;;;;;17.87;100.00;100300.25;5015677;28;20208;-78
2022/08/01 04:08:36;;;;;;;4.53;4.23;;;;;;;17.82;100.00;100305.75;5015857;28;20908;-78
2022/08/01 04:11:03;;;;;;;5.30;4.50;;;;;;;17.83;100.00;100307.47;5015654;28;20308;-77
2022/08/01 04:13:29;;;;;;;4.53;4.13;;;;;;;17.83;100.00;100312.75;5016205;28;20241;-78
2022/08/01 04:15:56;;;;;;;4.90;4.53;;;;;;;17.90;100.00;100317.72;5015358;28;20672;-79
2022/08/01 04:18:23;;;;;;;4.30;4.00;;;;;;;17.89;100.00;100308.09;5017327;28;20233;-78
2022/08/01 04:20:50;;;;;;;4.57;4.27;;;;;;;17.76;100.00;100303.44;5016110;28;20205;-79
2022/08/01 04:23:18;;;;;;;5.57;5.17;;;;;;;17.77;100.00;100310.41;5016996;28;20665;-79
2022/08/01 04:25:48;;;;;;;5.53;5.13;;;;;;;17.71;100.00;100315.16;5016637;28;20278;-79
2022/08/01 04:28:17;;;;;;;5.83;5.43;;;;;;;17.69;100.00;100319.66;5017191;28;20294;-79
2022/08/01 04:30:47;;;;;;;6.43;5.87;;;;;;;17.69;100.00;100327.56;5017860;28;20711;-79
2022/08/01 04:33:16;;;;;;;6.33;5.93;;;;;;;17.65;100.00;100333.00;5017148;28;20237;-79
2022/08/01 04:35:45;;;;;;;6.90;6.40;;;;;;;17.63;100.00;100334.00;5017678;28;20235;-79
2022/08/01 04:38:16;;;;;;;6.47;6.03;;;;;;;17.63;100.00;100334.00;5017642;28;20229;-79
2022/08/01 04:40:45;;;;;;;7.00;6.40;;;;;;;17.69;100.00;100341.63;5017224;28;20308;-76
2022/08/01 04:43:13;;;;;;;6.40;5.90;;;;;;;17.75;100.00;100351.03;5018573;28;20225;-78
2022/08/01 04:45:40;;;;;;;6.70;6.20;;;;;;;17.72;100.00;100348.53;5017623;28;20200;-79
2022/08/01 04:48:07;;;;;;;6.27;5.83;;;;;;;17.75;100.00;100353.66;5017058;28;20222;-79
2022/08/01 04:50:35;;;;;;;6.63;6.03;;;;;;;17.73;100.00;100350.25;5017969;28;20201;-79
2022/08/01 04:53:02;;;;;;;7.07;6.47;;;;;;;17.78;100.00;100350.84;5017907;28;20229;-79
2022/08/01 04:55:31;;;;;;;7.20;6.60;;;;;;;17.80;100.00;100360.44;5017074;28;20214;-78
2022/08/01 04:57:57;;;;;;;8.60;6.70;;;;;;;17.82;100.00;100358.56;5017212;28;20232;-79
2022/08/01 05:00:25;;;;;;;6.97;6.40;;;;;;;17.88;100.00;100365.34;5018079;28;20260;-78
2022/08/01 05:02:51;;;;;;;6.67;6.23;;;;;;;18.02;100.00;100370.78;5017228;28;20264;-79
2022/08/01 05:05:18;;;;;;;7.17;6.57;;;;;;;17.97;100.00;100370.16;5016991;28;20209;-79
2022/08/01 05:07:44;;;;;;;8.43;7.67;;;;;;;17.91;100.00;100373.09;5016603;28;20284;-79
2022/08/01 05:10:12;;;;;;;8.37;7.67;;;;;;;17.95;100.00;100371.16;5016900;28;20843;-79
2022/08/01 05:12:39;;;;;;;8.70;8.10;;;;;;;17.94;100.00;100370.31;5016610;28;20770;-79
2022/08/01 05:15:07;;;;;;;8.30;7.63;;;;;;;18.09;100.00;100358.09;5013463;28;20209;-79
2022/08/01 05:17:34;;;;;;;8.33;7.70;;;;;;;18.18;100.00;100372.66;5010038;28;20208;-79
2022/08/01 05:20:01;;;;;;;9.13;8.43;;;;;;;18.07;100.00;100378.47;5008726;28;20209;-79
2022/08/01 05:22:27;;;;;;;8.60;8.00;;;;;;;18.19;100.00;100371.69;5005720;28;20197;-79
2022/08/01 05:24:54;;;;;;;8.67;8.07;;;;;;;18.28;100.00;100370.38;5006396;28;20202;-79
2022/08/01 05:27:20;;;;;;;8.83;8.03;;;;;;;18.16;100.00;100378.00;5007007;28;20202;-79
2022/08/01 05:29:46;;;;;;;10.07;9.07;;;;;;;18.18;100.00;100380.56;5004252;28;20221;-78
2022/08/01 05:32:13;;;;;;;10.90;9.90;;;;;;;18.19;100.00;100380.47;5004505;28;20222;-78
2022/08/01 05:34:41;;;;;;;9.80;9.00;;;;;;;18.21;100.00;100373.31;5005138;28;20567;-79
2022/08/01 05:37:07;;;;;;;10.50;9.50;;;;;;;18.19;100.00;100377.81;5008049;28;20349;-80
2022/08/01 05:39:34;;;;;;;10.73;9.87;;;;;;;18.26;100.00;100370.47;5006957;28;20223;-80
2022/08/01 05:42:00;;;;;;;9.13;8.30;;;;;;;18.24;100.00;100381.09;5006403;28;20201;-80
2022/08/01 05:44:26;;;;;;;9.03;8.10;;;;;;;18.43;100.00;100380.13;5007403;28;20209;-79
2022/08/01 05:46:53;;;;;;;7.43;6.67;;;;;;;18.43;100.00;100381.00;5008065;28;20743;-79
2022/08/01 05:49:19;;;;;;;7.33;6.73;;;;;;;18.55;100.00;100383.91;5010168;28;20224;-79
2022/08/01 05:51:47;;;;;;;6.47;5.97;;;;;;;18.37;100.00;100383.94;5007002;28;20210;-80
2022/08/01 05:54:13;;;;;;;5.10;4.60;;;;;;;18.28;100.00;100387.09;5007511;28;20228;-79
2022/08/01 05:56:40;;;;;;;3.90;3.60;;;;;;;18.26;100.00;100387.16;5005845;28;20233;-80
2022/08/01 05:59:06;;;;;;;3.53;3.10;;;;;;;18.32;100.00;100390.44;5004373;28;20252;-78
2022/08/01 06:01:32;;;;;;;4.50;4.10;;;;;;;18.31;100.00;100394.84;5006766;28;20210;-79
2022/08/01 06:03:59;;;;;;;3.00;2.70;;;;;;;18.20;100.00;100395.41;5006358;28;20234;-79
2022/08/01 06:06:26;;;;;;;2.70;2.50;;;;;;;18.05;100.00;100396.19;5003913;28;20214;-80
2022/08/01 06:08:54;;;;;;;2.53;2.10;;;;;;;17.89;100.00;100404.03;5005894;28;20229;-78
2022/08/01 06:11:20;;;;;;;1.80;1.40;;;;;;;17.76;100.00;100402.88;5003398;28;20644;-79
2022/08/01 06:13:47;;;;;;;1.70;1.50;;;;;;;17.86;100.00;100407.69;5003559;28;20229;-78
2022/08/01 06:16:13;;;;;;;1.50;1.37;;;;;;;17.90;100.00;100408.38;5004420;28;20620;-77
2022/08/01 06:18:39;;;;;;;1.53;1.43;;;;;;;17.97;100.00;100419.50;5006756;28;20628;-78
2022/08/01 06:21:06;;;;;;;1.70;1.60;;;;;;;17.97;100.00;100420.34;5002478;28;20874;-77
2022/08/01 06:23:32;;;;;;;1.90;1.70;;;;;;;17.92;100.00;100418.84;5005536;28;20676;-79
2022/08/01 06:26:00;;;;;;;1.90;1.70;;;;;;;17.90;100.00;100423.34;5005166;28;20269;-79
2022/08/01 06:28:26;;;;;;;2.60;2.07;;;;;;;17.98;100.00;100423.84;5003999;28;20233;-77
2022/08/01 06:30:53;;;;;;;2.80;2.07;;;;;;;17.92;100.00;100430.28;5005752;28;20621;-77
2022/08/01 06:33:19;;;;;;;3.13;2.03;;;;;;;18.04;100.00;100436.75;5004611;28;20802;-77
2022/08/01 06:35:45;;;;;;;2.13;1.97;;;;;;;18.07;100.00;100436.56;5003352;28;20252;-77
2022/08/01 06:38:12;;;;;;;2.90;2.70;;;;;;;18.18;100.00;100436.06;5004263;28;20225;-79
2022/08/01 06:40:38;;;;;;;3.37;3.07;;;;;;;18.36;100.00;100434.25;5008423;28;20259;-78
2022/08/01 06:43:06;;;;;;;3.60;3.23;;;;;;;18.53;100.00;100426.31;5010733;28;20273;-79
2022/08/01 06:45:33;;;;;;;2.90;2.70;;;;;;;18.66;100.00;100427.34;5008686;28;20544;-79
2022/08/01 06:47:59;;;;;;;3.20;2.97;;;;;;;18.59;100.00;100423.34;5009849;28;20294;-79
2022/08/01 06:50:25;;;;;;;3.50;3.20;;;;;;;18.58;100.00;100423.44;5009857;28;20209;-79
2022/08/01 06:52:52;;;;;;;3.70;3.50;;;;;;;18.61;100.00;100424.13;5007153;28;20256;-79
2022/08/01 06:55:19;;;;;;;3.80;3.50;;;;;;;18.75;100.00;100420.75;5008578;28;20200;-80
2022/08/01 06:57:47;;;;;;;3.67;3.37;;;;;;;18.73;100.00;100427.03;5009393;28;20226;-80
2022/08/01 07:00:18;;;;;;;3.70;3.47;;;;;;;18.83;100.00;100423.03;5008684;28;20200;-80
2022/08/01 07:02:44;;;;;;;3.80;3.50;;;;;;;18.85;100.00;100429.94;5007563;28;20575;-79
2022/08/01 07:05:11;;;;;;;3.43;3.13;;;;;;;18.84;100.00;100422.06;5009465;28;20260;-78
2022/08/01 07:07:38;;;;;;;3.80;3.60;;;;;;;18.81;100.00;100428.38;5007934;28;20271;-79
2022/08/01 07:10:06;;;;;;;2.27;2.17;;;;;;;18.66;100.00;100431.81;5007744;28;20746;-80
2022/08/01 07:12:33;;;;;;;1.90;1.70;;;;;;;18.52;100.00;100432.53;5007236;28;20231;-79
2022/08/01 07:14:59;;;;;;;1.90;1.80;;;;;;;18.30;100.00;100432.78;5007121;28;20213;-78
2022/08/01 07:17:27;;;;;;;2.57;2.40;;;;;;;18.21;100.00;100435.88;5013051;28;20203;-80
2022/08/01 07:19:54;;;;;;;2.80;2.60;;;;;;;18.31;100.00;100434.47;5009280;28;20269;-78
2022/08/01 07:22:20;;;;;;;3.30;3.00;;;;;;;18.34;100.00;100436.13;5016671;28;20198;-77
2022/08/01 07:24:47;;;;;;;2.30;2.20;;;;;;;18.27;100.00;100440.84;5023462;28;20208;-78
2022/08/01 07:27:14;;;;;;;2.30;2.00;;;;;;;18.08;100.00;100454.16;5025726;28;20214;-79
2022/08/01 07:29:40;;;;;;;1.73;1.63;;;;;;;17.88;100.00;100446.34;5024558;28;20225;-80
2022/08/01 07:32:07;;;;;;;2.07;1.97;;;;;;;17.85;100.00;100444.72;5009916;28;20213;-80
2022/08/01 07:34:34;;;;;;;2.17;2.00;;;;;;;17.94;100.00;100457.47;5008268;28;20314;-81
2022/08/01 07:37:01;;;;;;;2.57;2.43;;;;;;;17.96;100.00;100452.13;5008050;28;20673;-80
2022/08/01 07:39:27;;;;;;;2.40;1.60;;;;;;;17.96;100.00;100452.97;5007065;28;20344;-80
2022/08/01 07:41:53;;;;;;;1.47;1.37;;;;;;;17.89;100.00;100461.28;5006043;28;20206;-78
2022/08/01 07:44:20;;;;;;;1.90;1.80;;;;;;;18.03;100.00;100458.78;5007897;28;20216;-80
2022/08/01 07:46:46;;;;;;;2.20;2.00;;;;;;;18.17;100.00;100458.97;5010954;28;20215;-78
2022/08/01 07:49:13;;;;;;;3.47;2.47;;;;;;;18.11;100.00;100453.97;5008577;28;20226;-78
2022/08/01 07:51:40;;;;;;;2.37;2.17;;;;;;;18.14;100.00;100463.56;5006732;28;20209;-78
2022/08/01 07:54:07;;;;;;;2.67;2.47;;;;;;;18.22;100.00;100464.88;5008068;28;20226;-79
2022/08/01 07:56:33;;;;;;;2.60;2.40;;;;;;;18.24;100.00;100465.66;5005613;28;20209;-78
2022/08/01 07:59:00;;;;;;;2.97;2.77;;;;;;;18.20;100.00;100463.25;5007425;28;20229;-80
2022/08/01 08:01:26;;;;;;;2.93;2.73;;;;;;;18.10;100.00;100473.44;5008349;28;20210;-79
2022/08/01 08:03:52;;;;;;;3.60;3.27;;;;;;;18.25;100.00;100466.50;5006396;28;20213;-80
2022/08/01 08:06:19;;;;;;;4.00;3.70;;;;;;;18.25;100.00;100474.44;5007898;28;20205;-80
2022/08/01 08:08:46;;;;;;;3.60;3.40;;;;;;;18.33;100.00;100481.97;5008879;28;20219;-81
2022/08/01 08:11:13;;;;;;;4.97;3.60;;;;;;;18.41;100.00;100480.66;5006962;28;20261;-80
2022/08/01 08:13:39;;;;;;;3.63;3.43;;;;;;;18.56;100.00;100486.09;5007853;28;20249;-80
2022/08/01 08:16:06;;;;;;;3.97;3.67;;;;;;;18.60;100.00;100495.59;5011028;28;20718;-80
2022/08/01 08:18:32;;;;;;;3.40;3.20;;;;;;;18.80;100.00;100484.00;5023262;28;20225;-80
2022/08/01 08:20:59;;;;;;;3.30;3.10;;;;;;;18.95;100.00;100492.91;5013650;28;20220;-78
2022/08/01 08:26:11;;;;;;;1.87;1.77;;;;;;;19.01;100.00;100500.53;5005932;28;20229;-79
2022/08/01 08:28:37;;;;;;;2.57;2.00;;;;;;;19.01;100.00;100522.53;5006720;28;20565;-79
2022/08/01 08:31:04;;;;;;;1.90;1.80;;;;;;;18.95;100.00;100527.28;5006015;28;20624;-79
2022/08/01 08:33:30;;;;;;;2.30;2.20;;;;;;;19.11;100.00;100530.84;5007830;28;20276;-77
2022/08/01 08:35:56;;;;;;;2.77;2.20;;;;;;;18.99;100.00;100544.75;5006182;28;20209;-79
2022/08/01 08:38:25;;;;;;;2.37;2.17;;;;;;;18.98;100.00;100548.31;5006180;28;20219;-79
2022/08/01 08:40:52;;;;;;;2.60;2.40;;;;;;;19.01;100.00;100537.56;5006925;28;20212;-79
2022/08/01 08:43:21;;;;;;;4.53;2.87;;;;;;;18.97;100.00;100507.78;5005641;28;20203;-79
2022/08/01 08:45:47;;;;;;;2.40;2.20;;;;;;;18.79;100.00;100535.13;5007607;28;20251;-79
2022/08/01 08:48:14;;;;;;;2.60;2.40;;;;;;;18.85;100.00;100546.31;5009074;28;20222;-78
2022/08/01 08:50:42;;;;;;;2.63;2.50;;;;;;;19.01;100.00;100540.22;5007654;28;20207;-79
2022/08/01 08:53:10;;;;;;;3.10;2.90;;;;;;;18.96;100.00;100537.78;5005574;28;20219;-78
2022/08/01 08:55:38;;;;;;;3.37;3.07;;;;;;;19.10;100.00;100523.00;5006211;28;20272;-78
2022/08/01 08:58:05;;;;;;;3.20;2.90;;;;;;;19.01;100.00;100525.19;5007171;28;20231;-79
2022/08/01 09:00:35;;;;;;;2.87;2.67;;;;;;;19.12;100.00;100534.34;5005275;28;20669;-79
2022/08/01 09:03:02;;;;;;;3.13;2.93;;;;;;;19.10;100.00;100568.81;5006490;28;20304;-80
2022/08/01 09:05:28;;;;;;;3.50;3.17;;;;;;;19.11;100.00;100564.38;5007448;28;20688;-79
2022/08/01 09:07:54;;;;;;;2.20;2.00;;;;;;;19.20;100.00;100577.13;5006379;28;20278;-79
2022/08/01 09:10:21;;;;;;;1.77;1.67;;;;;;;19.28;100.00;100590.81;5005017;28;20202;-78
2022/08/01 09:13:04;;;;;;;1.13;1.13;;;;;;;19.18;99.69;100618.69;5006244;28;20237;-80
2022/08/01 09:15:41;;;;;;;1.63;1.00;;;;;;;19.19;96.70;100668.06;5007225;28;20202;-78
2022/08/01 09:18:07;;;;;;;1.13;1.00;;;;;;;19.27;96.04;100699.44;5008935;28;20225;-77
2022/08/01 09:20:35;;;;;;;1.30;1.30;;;;;;;19.14;95.42;100707.97;5005909;28;20260;-80
2022/08/01 09:23:02;;;;;;;1.47;1.37;;;;;;;19.45;96.05;100706.41;5005941;28;20201;-79
2022/08/01 09:25:32;;;;;;;1.23;1.23;;;;;;;19.69;96.46;100685.75;5006223;28;20356;-79
2022/08/01 09:28:05;;;;;;;1.30;1.30;;;;;;;19.59;94.46;100724.25;5005459;28;20222;-79
2022/08/01 09:30:37;;;;;;;1.20;1.20;;;;;;;19.68;95.56;100701.72;5004970;28;20210;-79
2022/08/01 09:33:06;;;;;;;1.53;1.13;;;;;;;19.49;93.76;100733.59;5004827;28;20209;-78
2022/08/01 09:35:36;;;;;;;1.10;1.10;;;;;;;19.44;92.79;100757.66;5005552;28;20201;-78
2022/08/01 09:38:16;;;;;;;1.43;1.30;;;;;;;19.60;93.73;100732.13;5004313;28;20314;-78
2022/08/01 09:40:46;;;;;;;1.10;1.00;;;;;;;19.56;92.25;100769.41;5005766;28;20260;-78
2022/08/01 09:43:13;;;;;;;1.30;1.17;;;;;;;19.41;92.09;100768.41;5005142;28;20206;-79
2022/08/01 09:45:40;;;;;;;1.40;1.30;;;;;;;19.56;92.82;100751.75;5007656;28;20206;-80
2022/08/01 09:48:09;;;;;;;1.53;1.43;;;;;;;19.57;91.51;100782.56;5008899;28;20283;-81
2022/08/01 09:50:41;;;;;;;1.80;1.47;;;;;;;19.47;91.54;100778.69;5005719;28;20257;-80
2022/08/01 09:53:07;;;;;;;1.47;1.40;;;;;;;19.64;91.65;100778.69;5005342;28;20212;-81
2022/08/01 09:55:34;;;;;;;2.50;1.90;;;;;;;19.65;91.91;100763.66;5003671;28;20224;-78
2022/08/01 09:58:00;;;;;;;2.00;1.90;;;;;;;19.73;91.76;100765.94;5003819;28;20639;-77
2022/08/01 10:00:27;;;;;;;2.00;1.80;;;;;;;19.70;91.60;100772.22;5004294;28;20203;-78
2022/08/01 10:02:54;;;;;;;2.40;2.20;;;;;;;19.67;91.45;100784.75;5003918;28;20280;-77
2022/08/01 10:05:31;;;;;;;2.63;2.40;;;;;;;19.57;91.32;100779.06;5006377;28;20248;-78
2022/08/01 10:07:59;;;;;;;1.77;1.60;;;;;;;19.49;89.83;100808.59;5005042;28;20244;-78
2022/08/01 10:10:26;;;;;;;1.67;1.10;;;;;;;19.65;89.38;100830.72;5007295;28;20202;-77
2022/08/01 10:12:53;;;;;;;1.10;1.10;;;;;;;19.53;90.29;100818.09;5011465;28;20221;-77
2022/08/01 10:15:20;;;;;;;1.10;1.00;;;;;;;19.28;88.43;100849.34;5005899;28;20221;-77
2022/08/01 10:17:53;;;;;;;0.90;0.90;;;;;;;19.21;89.05;100846.16;5010255;28;20214;-78
2022/08/01 10:20:23;;;;;;;1.17;1.10;;;;;;;19.12;90.26;100807.75;5010680;28;20196;-79
2022/08/01 10:22:52;;;;;;;1.00;0.90;;;;;;;19.08;90.21;100811.47;5005774;28;20261;-78
2022/08/01 10:25:21;;;;;;;1.33;1.23;;;;;;;19.12;89.05;100818.34;5005940;28;20206;-78
2022/08/01 10:27:49;;;;;;;1.30;1.20;;;;;;;19.23;89.66;100808.09;5008963;28;20284;-79
2022/08/01 10:30:16;;;;;;;1.10;1.10;;;;;;;19.40;88.33;100835.50;5008620;28;20198;-79
2022/08/01 10:32:43;;;;;;;0.90;0.90;;;;;;;19.40;87.67;100864.63;5007242;28;20236;-79
2022/08/01 10:35:14;;;;;;;1.03;1.03;;;;;;;19.40;88.18;100833.72;5006155;28;20250;-78
2022/08/01 10:37:42;;;;;;;1.00;0.93;;;;;;;19.43;87.02;100854.75;5005363;28;20745;-78
2022/08/01 10:40:09;;;;;;;1.13;0.80;;;;;;;19.57;87.63;100861.16;5008976;28;20683;-78
2022/08/01 10:42:36;;;;;;;1.43;1.33;;;;;;;19.64;86.22;100862.56;5007635;28;20198;-79
2022/08/01 10:45:04;;;;;;;1.00;0.90;;;;;;;19.71;85.77;100902.88;5006652;28;20206;-79
2022/08/01 10:47:38;;;;;;;1.00;1.00;;;;;;;19.78;86.58;100870.72;5010130;28;20672;-79
2022/08/01 10:50:12;;;;;;;0.83;0.83;;;;;;;19.64;85.63;100891.69;5009707;28;20229;-78
2022/08/01 10:52:38;;;;;;;1.33;1.07;;;;;;;19.83;86.03;100883.72;5007871;28;20202;-77
2022/08/01 10:55:09;;;;;;;1.13;1.03;;;;;;;19.73;88.05;100840.94;4312200;28;10000849;-79
2022/08/01 10:57:45;;;;;;;4.00;1.77;;;;;;;19.55;88.19;100813.56;5003841;28;20618;-79
2022/08/01 11:00:18;;;;;;;1.67;1.57;;;;;;;19.56;87.11;100839.13;5004276;28;20207;-78
2022/08/01 11:02:58;;;;;;;1.70;1.60;;;;;;;19.53;86.64;100860.47;5004367;28;20214;-78
2022/08/01 11:05:26;;;;;;;1.40;1.30;;;;;;;19.50;86.58;100863.25;5001672;28;20704;-77
2022/08/01 11:07:54;;;;;;;1.30;1.30;;;;;;;19.50;84.83;100897.66;5004393;28;20283;-79
2022/08/01 11:10:26;;;;;;;1.20;1.10;;;;;;;19.59;83.14;100955.50;5003764;28;20209;-78
2022/08/01 11:12:53;;;;;;;1.80;1.30;;;;;;;19.72;83.15;100962.88;5002478;28;20269;-79
2022/08/01 11:15:25;;;;;;;1.70;1.30;;;;;;;19.88;83.35;100949.72;5002218;28;20219;-79
2022/08/01 11:17:53;;;;;;;1.60;1.50;;;;;;;20.07;82.89;100962.94;5008127;28;20931;-78
2022/08/01 11:20:20;;;;;;;1.93;1.70;;;;;;;20.40;82.73;100971.81;5007286;28;20202;-79
2022/08/01 11:23:23;;;;;;;1.90;1.80;;;;;;;20.80;78.50;101048.50;5001663;28;20749;-77
2022/08/01 11:26:22;;;;;;;1.77;1.63;;;;;;;21.07;78.58;101082.50;5001634;28;20211;-79
2022/08/01 11:29:18;;;;;;;1.67;1.57;;;;;;;20.62;77.57;101112.19;5002636;28;20994;-78